createdAt,value
2018-12-13T00:01:17.062Z,99052.59
2018-12-13T00:03:45.194Z,99045.77
2018-12-13T00:06:13.637Z,99043.56
2018-12-13T00:08:41.812Z,99032.91
2018-12-13T00:11:10.017Z,99030.03
2018-12-13T00:13:38.142Z,99030.70
2018-12-13T00:16:06.406Z,99029.17
2018-12-13T00:18:34.582Z,99027.64
2018-12-13T00:21:02.722Z,99025.26
2018-12-13T00:23:30.850Z,99027.46
2018-12-13T00:25:58.995Z,99023.58
2018-12-13T00:28:27.109Z,99025.37
2018-12-13T00:30:55.262Z,99021.26
2018-12-13T00:33:23.520Z,99024.83
2018-12-13T00:35:51.651Z,99016.84
2018-12-13T00:38:19.861Z,99017.75
2018-12-13T00:40:47.998Z,99016.77
2018-12-13T00:43:16.136Z,99016.54
2018-12-13T00:45:44.423Z,99016.59
2018-12-13T00:48:12.698Z,99015.97
2018-12-13T00:50:40.844Z,99017.75
2018-12-13T00:53:08.986Z,99017.75
2018-12-13T00:55:37.133Z,99018.68
2018-12-13T00:58:05.455Z,99017.50
2018-12-13T01:00:33.669Z,99017.89
2018-12-13T01:03:01.807Z,99009.04
2018-12-13T01:05:30.013Z,99022.31
2018-12-13T01:07:58.138Z,99009.31
2018-12-13T01:10:26.319Z,99011.66
2018-12-13T01:12:54.462Z,99011.81
2018-12-13T01:15:22.606Z,99007.67
2018-12-13T01:17:50.758Z,99008.88
2018-12-13T01:20:18.897Z,99009.97
2018-12-13T01:22:47.441Z,99008.61
2018-12-13T01:25:15.584Z,99005.67
2018-12-13T01:27:43.812Z,99003.59
2018-12-13T01:30:12.353Z,99009.97
2018-12-13T01:32:40.497Z,99003.41
2018-12-13T01:35:08.639Z,98998.17
2018-12-13T01:37:36.774Z,98999.81
2018-12-13T01:40:05.457Z,98993.41
2018-12-13T01:42:33.601Z,98999.78
2018-12-13T01:45:01.798Z,98999.86
2018-12-13T01:47:29.953Z,98999.28
2018-12-13T01:49:58.057Z,99006.50
2018-12-13T01:52:26.197Z,99001.76
2018-12-13T01:54:54.348Z,99000.41
2018-12-13T01:57:22.490Z,98993.89
2018-12-13T01:59:50.677Z,98986.45
2018-12-13T02:02:18.816Z,98993.02
2018-12-13T02:04:46.988Z,98990.82
2018-12-13T02:07:15.133Z,98984.37
2018-12-13T02:09:43.337Z,98977.04
2018-12-13T02:12:11.722Z,98975.34
2018-12-13T02:14:39.828Z,98971.46
2018-12-13T02:17:08.001Z,98971.76
2018-12-13T02:19:36.133Z,98970.36
2018-12-13T02:22:04.449Z,98975.00
2018-12-13T02:24:32.585Z,98970.77
2018-12-13T02:27:00.877Z,98972.85
2018-12-13T02:29:29.049Z,98970.77
2018-12-13T02:31:57.293Z,98963.80
2018-12-13T02:34:25.457Z,98959.08
2018-12-13T02:36:53.670Z,98964.09
2018-12-13T02:39:21.803Z,98962.75
2018-12-13T02:41:50.084Z,98948.95
2018-12-13T02:44:18.253Z,98955.94
2018-12-13T02:46:46.405Z,98950.19
2018-12-13T02:49:14.566Z,98951.55
2018-12-13T02:51:42.699Z,98948.23
2018-12-13T02:54:10.851Z,98938.12
2018-12-13T02:56:39.755Z,98940.26
2018-12-13T02:59:07.900Z,98944.55
2018-12-13T03:01:36.117Z,98938.53
2018-12-13T03:04:04.414Z,98942.09
2018-12-13T03:06:32.562Z,98938.70
2018-12-13T03:09:00.798Z,98934.15
2018-12-13T03:11:29.018Z,98933.24
2018-12-13T03:13:57.145Z,98932.80
2018-12-13T03:16:25.286Z,98931.13
2018-12-13T03:18:54.349Z,98930.10
2018-12-13T03:21:22.508Z,98934.15
2018-12-13T03:23:51.586Z,98929.86
2018-12-13T03:26:19.812Z,98925.30
2018-12-13T03:28:47.937Z,98926.59
2018-12-13T03:31:16.083Z,98922.78
2018-12-13T03:33:44.321Z,98917.30
2018-12-13T03:36:12.678Z,98918.16
2018-12-13T03:38:40.922Z,98919.39
2018-12-13T03:41:09.051Z,98924.45
2018-12-13T03:43:37.210Z,98920.25
2018-12-13T03:46:05.527Z,98916.81
2018-12-13T03:48:33.661Z,98921.02
2018-12-13T03:51:01.810Z,98914.29
2018-12-13T03:53:29.962Z,98910.32
2018-12-13T03:55:58.158Z,98916.42
2018-12-13T03:58:26.393Z,98917.16
2018-12-13T04:00:54.531Z,98908.77
2018-12-13T04:03:23.203Z,98913.98
2018-12-13T04:05:51.325Z,98910.86
2018-12-13T04:08:19.468Z,98906.99
2018-12-13T04:10:47.636Z,98902.20
2018-12-13T04:13:15.808Z,98893.25
2018-12-13T04:15:44.052Z,98889.13
2018-12-13T04:18:12.306Z,98880.10
2018-12-13T04:20:40.502Z,98876.42
2018-12-13T04:23:08.837Z,98881.16
2018-12-13T04:25:36.991Z,98881.03
2018-12-13T04:28:05.234Z,98878.27
2018-12-13T04:30:33.406Z,98878.47
2018-12-13T04:33:01.603Z,98875.97
2018-12-13T04:35:29.799Z,98872.70
2018-12-13T04:37:57.965Z,98874.60
2018-12-13T04:40:26.122Z,98874.38
2018-12-13T04:42:54.587Z,98866.55
2018-12-13T04:45:22.796Z,98862.57
2018-12-13T04:47:50.954Z,98856.42
2018-12-13T04:50:19.093Z,98854.19
2018-12-13T04:52:47.244Z,98850.76
2018-12-13T04:55:15.466Z,98841.73
2018-12-13T04:57:43.594Z,98839.94
2018-12-13T05:00:11.912Z,98835.63
2018-12-13T05:02:40.138Z,98832.93
2018-12-13T05:05:08.277Z,98823.48
2018-12-13T05:07:41.689Z,98826.13
2018-12-13T05:10:06.906Z,98819.37
2018-12-13T05:12:35.058Z,98819.00
2018-12-13T05:15:03.454Z,98823.72
2018-12-13T05:17:31.610Z,98821.14
2018-12-13T05:19:59.746Z,98823.11
2018-12-13T05:22:27.890Z,98821.70
2018-12-13T05:24:56.134Z,98816.95
2018-12-13T05:27:24.308Z,98818.80
2018-12-13T05:29:52.521Z,98815.48
2018-12-13T05:32:20.745Z,98813.45
2018-12-13T05:34:48.871Z,98811.40
2018-12-13T05:37:17.013Z,98815.19
2018-12-13T05:39:45.127Z,98804.45
2018-12-13T05:42:13.289Z,98804.30
2018-12-13T05:44:41.429Z,98814.74
2018-12-13T05:47:09.568Z,98810.26
2018-12-13T05:49:37.800Z,98806.68
2018-12-13T05:52:05.958Z,98803.10
2018-12-13T05:54:34.124Z,98808.38
2018-12-13T05:57:02.267Z,98815.71
2018-12-13T05:59:30.388Z,98811.31
2018-12-13T06:01:58.521Z,98810.02
2018-12-13T06:04:26.641Z,98805.67
2018-12-13T06:06:54.773Z,98804.11
2018-12-13T06:09:22.910Z,98800.74
2018-12-13T06:11:51.106Z,98806.31
2018-12-13T06:14:19.238Z,98799.86
2018-12-13T06:16:47.369Z,98800.66
2018-12-13T06:19:15.498Z,98795.93
2018-12-13T06:21:43.658Z,98804.55
2018-12-13T06:24:11.827Z,98807.90
2018-12-13T06:26:40.008Z,98804.41
2018-12-13T06:29:08.225Z,98806.98
2018-12-13T06:31:36.352Z,98800.59
2018-12-13T06:34:04.513Z,98794.52
2018-12-13T06:36:32.833Z,98803.47
2018-12-13T06:39:01.300Z,98801.70
2018-12-13T06:41:29.525Z,98811.65
2018-12-13T06:43:57.702Z,98800.88
2018-12-13T06:46:25.921Z,98798.73
2018-12-13T06:48:54.358Z,98791.93
2018-12-13T06:51:22.490Z,98796.72
2018-12-13T06:53:50.645Z,98793.28
2018-12-13T06:56:18.819Z,98801.88
2018-12-13T06:58:47.066Z,98794.20
2018-12-13T07:01:15.419Z,98800.91
2018-12-13T07:03:43.575Z,98802.77
2018-12-13T07:06:11.774Z,98802.83
2018-12-13T07:08:39.918Z,98807.98
2018-12-13T07:11:08.050Z,98805.47
2018-12-13T07:13:36.207Z,98805.91
2018-12-13T07:16:04.422Z,98805.11
2018-12-13T07:18:32.641Z,98804.23
2018-12-13T07:21:01.451Z,98794.79
2018-12-13T07:23:29.724Z,98797.28
2018-12-13T07:25:57.853Z,98790.89
2018-12-13T07:28:26.194Z,98794.22
2018-12-13T07:30:54.318Z,98795.98
2018-12-13T07:33:22.586Z,98790.35
2018-12-13T07:35:50.740Z,98793.34
2018-12-13T07:38:18.855Z,98790.35
2018-12-13T07:40:46.982Z,98789.34
2018-12-13T07:43:15.206Z,98790.77
2018-12-13T07:45:43.358Z,98792.99
2018-12-13T07:48:11.485Z,98795.48
2018-12-13T07:50:39.600Z,98790.83
2018-12-13T07:53:07.750Z,98789.53
2018-12-13T07:55:35.864Z,98793.78
2018-12-13T07:58:04.017Z,98802.83
2018-12-13T08:00:33.136Z,98796.78
2018-12-13T08:03:01.265Z,98796.30
2018-12-13T08:05:29.427Z,98783.58
2018-12-13T08:07:57.702Z,98777.98
2018-12-13T08:10:25.892Z,98786.60
2018-12-13T08:12:54.337Z,98781.00
2018-12-13T08:15:22.489Z,98782.35
2018-12-13T08:17:50.630Z,98783.29
2018-12-13T08:20:18.941Z,98784.96
2018-12-13T08:22:47.057Z,98783.41
2018-12-13T08:25:15.313Z,98785.20
2018-12-13T08:27:43.535Z,98782.63
2018-12-13T08:30:11.886Z,98777.45
2018-12-13T08:32:40.101Z,98775.38
2018-12-13T08:35:08.342Z,98777.45
2018-12-13T08:37:37.129Z,98777.17
2018-12-13T08:40:06.425Z,98775.47
2018-12-13T08:42:34.574Z,98772.89
2018-12-13T08:45:02.738Z,98769.80
2018-12-13T08:47:30.878Z,98771.59
2018-12-13T08:49:59.194Z,98775.81
2018-12-13T08:52:27.327Z,98771.00
2018-12-13T08:54:55.477Z,98773.19
2018-12-13T08:57:23.720Z,98773.70
2018-12-13T08:59:52.021Z,98779.44
2018-12-13T09:02:20.150Z,98777.17
2018-12-13T09:04:48.322Z,98770.72
2018-12-13T09:07:16.429Z,98772.45
2018-12-13T09:09:44.578Z,98774.97
2018-12-13T09:12:12.885Z,98773.96
2018-12-13T09:14:41.105Z,98776.83
2018-12-13T09:17:09.350Z,98782.91
2018-12-13T09:19:37.470Z,98777.39
2018-12-13T09:22:05.613Z,98777.05
2018-12-13T09:24:33.821Z,98772.73
2018-12-13T09:27:02.033Z,98777.11
2018-12-13T09:29:30.210Z,98777.27
2018-12-13T09:31:58.342Z,98780.13
2018-12-13T09:34:26.649Z,98782.94
2018-12-13T09:36:54.866Z,98777.70
2018-12-13T09:39:23.013Z,98765.06
2018-12-13T09:41:51.254Z,98769.92
2018-12-13T09:44:19.520Z,98762.82
2018-12-13T09:46:47.725Z,98769.59
2018-12-13T09:49:16.056Z,98769.05
2018-12-13T09:51:44.220Z,98762.39
2018-12-13T09:54:12.717Z,98766.06
2018-12-13T09:56:40.907Z,98764.09
2018-12-13T09:59:09.044Z,98761.52
2018-12-13T10:01:37.390Z,98756.20
2018-12-13T10:04:05.701Z,98753.19
2018-12-13T10:06:33.841Z,98754.11
2018-12-13T10:09:02.241Z,98749.01
2018-12-13T10:11:30.584Z,98750.44
2018-12-13T10:13:58.729Z,98738.02
2018-12-13T10:16:26.883Z,98738.36
2018-12-13T10:18:55.323Z,98736.69
2018-12-13T10:21:23.481Z,98737.98
2018-12-13T10:23:51.720Z,98742.88
2018-12-13T10:26:19.842Z,98741.48
2018-12-13T10:28:47.980Z,98736.13
2018-12-13T10:31:16.324Z,98733.73
2018-12-13T10:33:44.462Z,98725.46
2018-12-13T10:36:12.819Z,98724.75
2018-12-13T10:38:41.106Z,98725.39
2018-12-13T10:41:09.612Z,98710.56
2018-12-13T10:43:37.848Z,98715.24
2018-12-13T10:46:06.202Z,98712.88
2018-12-13T10:48:34.456Z,98716.97
2018-12-13T10:51:02.607Z,98713.02
2018-12-13T10:53:30.769Z,98714.97
2018-12-13T10:55:59.002Z,98705.28
2018-12-13T10:58:27.177Z,98710.56
2018-12-13T11:01:00.770Z,98701.01
2018-12-13T11:03:34.394Z,98702.69
2018-12-13T11:06:02.638Z,98697.63
2018-12-13T11:08:30.791Z,98691.83
2018-12-13T11:10:58.950Z,98690.31
2018-12-13T11:13:27.208Z,98687.03
2018-12-13T11:15:55.553Z,98682.37
2018-12-13T11:18:23.753Z,98687.33
2018-12-13T11:20:51.906Z,98680.67
2018-12-13T11:23:20.047Z,98682.75
2018-12-13T11:25:48.258Z,98678.09
2018-12-13T11:29:32.763Z,98680.75
2018-12-13T11:32:00.929Z,98678.20
2018-12-13T11:34:29.155Z,98676.72
2018-12-13T11:36:57.292Z,98675.80
2018-12-13T11:39:25.450Z,98667.84
2018-12-13T11:41:53.702Z,98656.78
2018-12-13T11:44:21.939Z,98655.67
2018-12-13T11:46:50.383Z,98660.97
2018-12-13T11:49:18.495Z,98658.38
2018-12-13T11:51:46.835Z,98664.03
2018-12-13T11:54:28.540Z,98661.45
2018-12-13T11:56:56.795Z,98658.86
2018-12-13T11:59:25.018Z,98658.63
2018-12-13T12:01:53.210Z,98663.14
2018-12-13T12:04:21.365Z,98660.63
2018-12-13T12:06:49.501Z,98662.63
2018-12-13T12:09:17.616Z,98661.41
2018-12-13T12:11:45.831Z,98651.22
2018-12-13T12:14:14.129Z,98647.59
2018-12-13T12:16:42.625Z,98648.52
2018-12-13T12:19:10.883Z,98647.34
2018-12-13T12:21:39.189Z,98645.80
2018-12-13T12:24:07.434Z,98652.56
2018-12-13T12:26:35.614Z,98649.64
2018-12-13T12:29:03.937Z,98646.09
2018-12-13T12:31:32.082Z,98650.87
2018-12-13T12:34:00.343Z,98649.20
2018-12-13T12:36:28.574Z,98646.98
2018-12-13T12:38:56.695Z,98636.33
2018-12-13T12:41:25.061Z,98646.69
2018-12-13T12:43:53.267Z,98642.47
2018-12-13T12:46:21.529Z,98637.81
2018-12-13T12:48:49.700Z,98645.14
2018-12-13T12:51:17.853Z,98648.69
2018-12-13T12:53:46.144Z,98645.18
2018-12-13T12:56:14.299Z,98644.44
2018-12-13T12:58:42.600Z,98642.81
2018-12-13T13:01:10.774Z,98640.75
2018-12-13T13:03:38.933Z,98639.78
2018-12-13T13:06:07.313Z,98636.02
2018-12-13T13:08:35.562Z,98638.16
2018-12-13T13:11:03.741Z,98638.86
2018-12-13T13:13:31.920Z,98638.93
2018-12-13T13:16:00.134Z,98642.22
2018-12-13T13:18:28.405Z,98638.44
2018-12-13T13:20:56.691Z,98636.78
2018-12-13T13:23:25.443Z,98639.03
2018-12-13T13:25:53.619Z,98643.89
2018-12-13T13:28:21.911Z,98633.09
2018-12-13T13:30:50.100Z,98630.90
2018-12-13T13:33:18.302Z,98637.05
2018-12-13T13:35:46.550Z,98628.75
2018-12-13T13:38:15.315Z,98626.69
2018-12-13T13:40:43.613Z,98630.13
2018-12-13T13:43:11.780Z,98628.50
2018-12-13T13:45:39.942Z,98627.28
2018-12-13T13:48:08.141Z,98624.25
2018-12-13T13:50:36.270Z,98627.06
2018-12-13T13:53:04.547Z,98623.58
2018-12-13T13:55:32.868Z,98624.61
2018-12-13T13:58:01.071Z,98622.02
2018-12-13T14:00:29.260Z,98623.31
2018-12-13T14:02:57.678Z,98627.38
2018-12-13T14:05:25.877Z,98616.31
2018-12-13T14:07:54.106Z,98616.53
2018-12-13T14:10:22.393Z,98626.77
2018-12-13T14:12:50.606Z,98623.66
2018-12-13T14:15:19.097Z,98622.05
2018-12-13T14:17:47.275Z,98622.89
2018-12-13T14:20:15.463Z,98618.60
2018-12-13T14:22:44.268Z,98622.30
2018-12-13T14:25:12.732Z,98625.33
2018-12-13T14:27:40.905Z,98618.60
2018-12-13T14:30:09.322Z,98619.90
2018-12-13T14:32:37.513Z,98619.08
2018-12-13T14:35:06.370Z,98619.78
2018-12-13T14:37:34.545Z,98625.08
2018-12-13T14:40:02.942Z,98619.97
2018-12-13T14:42:31.138Z,98621.97
2018-12-13T14:44:59.451Z,98626.52
2018-12-13T14:47:27.586Z,98620.38
2018-12-13T14:49:55.729Z,98623.94
2018-12-13T14:52:24.035Z,98629.31
2018-12-13T14:54:52.435Z,98625.90
2018-12-13T14:57:20.851Z,98627.31
2018-12-13T14:59:48.993Z,98636.00
2018-12-13T15:02:18.376Z,98640.73
2018-12-13T15:04:46.626Z,98637.30
2018-12-13T15:07:14.926Z,98634.01
2018-12-13T15:09:43.145Z,98630.64
2018-12-13T15:12:11.326Z,98625.47
2018-12-13T15:14:39.766Z,98632.02
2018-12-13T15:17:07.938Z,98630.20
2018-12-13T15:19:36.097Z,98632.53
2018-12-13T15:22:04.312Z,98631.68
2018-12-13T15:24:32.586Z,98624.25
2018-12-13T15:27:00.834Z,98636.89
2018-12-13T15:29:29.046Z,98636.52
2018-12-13T15:31:59.613Z,98637.12
2018-12-13T15:34:27.666Z,98634.90
2018-12-13T15:36:55.974Z,98628.50
2018-12-13T15:39:24.117Z,98622.66
2018-12-13T15:41:52.429Z,98633.94
2018-12-13T15:44:20.743Z,98625.32
2018-12-13T15:48:55.590Z,98633.09
2018-12-13T15:51:23.950Z,98630.20
2018-12-13T15:53:52.120Z,98631.86
2018-12-13T15:56:20.507Z,98647.92
2018-12-13T15:58:48.802Z,98644.95
2018-12-13T16:01:17.198Z,98642.48
2018-12-13T16:03:45.575Z,98643.41
2018-12-13T16:06:13.793Z,98639.97
2018-12-13T16:08:41.987Z,98651.17
2018-12-13T16:11:10.185Z,98643.41
2018-12-13T16:13:38.314Z,98641.70
2018-12-13T16:16:06.535Z,98648.70
2018-12-13T16:18:34.691Z,98645.59
2018-12-13T16:21:03.062Z,98641.85
2018-12-13T16:23:31.653Z,98641.22
2018-12-13T16:25:59.843Z,98644.33
2018-12-13T16:28:28.039Z,98642.97
2018-12-13T16:30:56.174Z,98644.19
2018-12-13T16:33:24.345Z,98651.58
2018-12-13T16:35:52.501Z,98645.70
2018-12-13T16:38:20.654Z,98645.48
2018-12-13T16:40:48.884Z,98641.16
2018-12-13T16:43:17.070Z,98642.52
2018-12-13T16:45:45.212Z,98640.75
2018-12-13T16:48:13.375Z,98640.23
2018-12-13T16:50:41.629Z,98645.36
2018-12-13T16:53:09.772Z,98638.64
2018-12-13T16:55:37.922Z,98640.23
2018-12-13T16:58:06.216Z,98636.83
2018-12-13T17:00:34.350Z,98638.34
2018-12-13T17:03:12.687Z,98640.56
2018-12-13T17:05:40.807Z,98644.07
2018-12-13T17:08:08.957Z,98643.48
2018-12-13T17:10:37.211Z,98635.75
2018-12-13T17:13:05.347Z,98639.52
2018-12-13T17:15:33.483Z,98642.55
2018-12-13T17:18:01.685Z,98648.58
2018-12-13T17:20:29.827Z,98644.70
2018-12-13T17:22:57.982Z,98641.85
2018-12-13T17:25:26.122Z,98640.81
2018-12-13T17:27:54.267Z,98637.30
2018-12-13T17:30:22.504Z,98633.90
2018-12-13T17:32:50.717Z,98638.53
2018-12-13T17:35:19.034Z,98639.08
2018-12-13T17:37:47.173Z,98634.87
2018-12-13T17:40:15.347Z,98637.45
2018-12-13T17:42:43.994Z,98637.60
2018-12-13T17:45:12.121Z,98640.70
2018-12-13T17:47:40.554Z,98647.95
2018-12-13T17:50:08.773Z,98644.89
2018-12-13T17:52:36.978Z,98644.59
2018-12-13T17:55:05.321Z,98645.88
2018-12-13T17:57:33.472Z,98646.33
2018-12-13T18:00:01.702Z,98645.73
2018-12-13T18:02:29.820Z,98645.66
2018-12-13T18:04:57.949Z,98649.47
2018-12-13T18:07:26.097Z,98640.93
2018-12-13T18:09:54.245Z,98643.92
2018-12-13T18:12:23.328Z,98644.81
2018-12-13T18:14:51.486Z,98639.13
2018-12-13T18:17:19.631Z,98650.77
2018-12-13T18:19:47.951Z,98645.22
2018-12-13T18:22:16.090Z,98637.97
2018-12-13T18:24:44.222Z,98637.30
2018-12-13T18:27:12.393Z,98631.36
2018-12-13T18:29:40.541Z,98637.83
2018-12-13T18:32:08.925Z,98636.75
2018-12-13T18:34:37.069Z,98638.34
2018-12-13T18:37:05.350Z,98633.16
2018-12-13T18:39:33.486Z,98637.53
2018-12-13T18:42:01.642Z,98638.42
2018-12-13T18:44:29.774Z,98640.56
2018-12-13T18:46:58.004Z,98642.45
2018-12-13T18:49:27.002Z,98646.52
2018-12-13T18:51:55.201Z,98639.97
2018-12-13T18:54:23.355Z,98632.72
2018-12-13T18:56:51.582Z,98641.70
2018-12-13T18:59:19.740Z,98645.66
2018-12-13T19:01:47.868Z,98650.39
2018-12-13T19:04:15.992Z,98645.22
2018-12-13T19:06:44.131Z,98648.25
2018-12-13T19:09:12.296Z,98646.11
2018-12-13T19:11:40.462Z,98644.52
2018-12-13T19:14:08.638Z,98651.24
2018-12-13T19:16:36.865Z,98657.45
2018-12-13T19:19:05.094Z,98656.75
2018-12-13T19:21:33.222Z,98658.82
2018-12-13T19:24:01.402Z,98658.05
2018-12-13T19:26:29.541Z,98657.13
2018-12-13T19:28:58.473Z,98658.05
2018-12-13T19:31:26.601Z,98657.53
2018-12-13T19:33:54.736Z,98658.82
2018-12-13T19:36:23.084Z,98658.13
2018-12-13T19:38:51.198Z,98659.97
2018-12-13T19:41:19.321Z,98661.22
2018-12-13T19:43:47.450Z,98658.94
2018-12-13T19:46:15.697Z,98666.77
2018-12-13T19:48:43.880Z,98665.55
2018-12-13T19:51:12.033Z,98664.26
2018-12-13T19:53:40.252Z,98664.63
2018-12-13T19:56:08.569Z,98667.73
2018-12-13T19:58:36.702Z,98667.73
2018-12-13T20:01:04.919Z,98659.97
2018-12-13T20:03:33.166Z,98666.44
2018-12-13T20:06:01.300Z,98670.73
2018-12-13T20:08:30.299Z,98670.80
2018-12-13T20:10:58.440Z,98671.24
2018-12-13T20:13:26.633Z,98669.95
2018-12-13T20:15:54.779Z,98674.20
2018-12-13T20:18:22.919Z,98685.30
2018-12-13T20:20:51.125Z,98682.12
2018-12-13T20:23:19.259Z,98685.08
2018-12-13T20:25:47.396Z,98684.38
2018-12-13T20:28:15.566Z,98684.44
2018-12-13T20:30:43.902Z,98681.45
2018-12-13T20:33:12.054Z,98680.67
2018-12-13T20:35:40.211Z,98681.08
2018-12-13T20:38:08.366Z,98684.55
2018-12-13T20:40:36.604Z,98683.22
2018-12-13T20:43:04.855Z,98694.72
2018-12-13T20:45:33.135Z,98688.84
2018-12-13T20:48:02.018Z,98698.78
2018-12-13T20:50:30.177Z,98700.93
2018-12-13T20:52:58.325Z,98696.53
2018-12-13T20:55:26.465Z,98696.16
2018-12-13T20:58:08.813Z,98696.75
2018-12-13T21:00:36.963Z,98702.37
2018-12-13T21:03:05.218Z,98701.52
2018-12-13T21:05:33.433Z,98697.78
2018-12-13T21:08:07.076Z,98708.77
2018-12-13T21:10:35.290Z,98705.54
2018-12-13T21:13:03.655Z,98706.77
2018-12-13T21:15:31.912Z,98702.11
2018-12-13T21:18:00.129Z,98707.47
2018-12-13T21:20:28.262Z,98706.55
2018-12-13T21:22:56.519Z,98704.44
2018-12-13T21:25:24.726Z,98706.69
2018-12-13T21:27:52.975Z,98706.32
2018-12-13T21:30:21.145Z,98711.42
2018-12-13T21:32:49.313Z,98705.73
2018-12-13T21:35:17.564Z,98707.84
2018-12-13T21:37:45.719Z,98709.35
2018-12-13T21:40:14.025Z,98707.72
2018-12-13T21:42:42.270Z,98710.00
2018-12-13T21:45:10.585Z,98707.45
2018-12-13T21:47:38.734Z,98714.33
2018-12-13T21:50:08.096Z,98705.79
2018-12-13T21:52:36.254Z,98708.89
2018-12-13T21:55:05.142Z,98711.99
2018-12-13T21:57:33.379Z,98706.75
2018-12-13T22:02:40.851Z,98709.81
2018-12-13T22:05:09.023Z,98703.86
2018-12-13T22:07:37.166Z,98713.02
2018-12-13T22:10:06.373Z,98705.73
2018-12-13T22:12:35.098Z,98724.29
2018-12-13T22:15:03.316Z,98714.38
2018-12-13T22:17:31.462Z,98721.77
2018-12-13T22:19:59.661Z,98716.19
2018-12-13T22:22:27.839Z,98717.41
2018-12-13T22:24:55.973Z,98719.19
2018-12-13T22:27:24.186Z,98716.09
2018-12-13T22:29:52.328Z,98723.27
2018-12-13T22:32:20.504Z,98720.20
2018-12-13T22:34:49.197Z,98720.41
2018-12-13T22:37:17.622Z,98715.81
2018-12-13T22:39:45.777Z,98719.70
2018-12-13T22:42:14.057Z,98717.11
2018-12-13T22:44:42.249Z,98723.44
2018-12-13T22:47:10.402Z,98722.66
2018-12-13T22:49:38.521Z,98727.39
2018-12-13T22:52:06.661Z,98732.12
2018-12-13T22:54:34.800Z,98725.58
2018-12-13T22:57:02.990Z,98730.42
2018-12-13T22:59:31.242Z,98732.94
2018-12-13T23:01:59.565Z,98729.70
2018-12-13T23:04:27.896Z,98738.25
2018-12-13T23:06:56.130Z,98725.06
2018-12-13T23:09:24.268Z,98732.76
2018-12-13T23:11:52.409Z,98734.05
2018-12-13T23:14:20.542Z,98724.93
2018-12-13T23:16:48.669Z,98729.66
2018-12-13T23:19:16.986Z,98731.02
2018-12-13T23:21:45.129Z,98731.06
2018-12-13T23:24:13.276Z,98732.42
2018-12-13T23:26:41.620Z,98725.33
2018-12-13T23:29:09.768Z,98727.85
2018-12-13T23:31:37.958Z,98729.59
2018-12-13T23:34:06.193Z,98734.77
2018-12-13T23:36:34.499Z,98733.40
2018-12-13T23:39:02.687Z,98733.47
2018-12-13T23:41:30.802Z,98736.06
2018-12-13T23:43:59.042Z,98740.72
2018-12-13T23:46:27.270Z,98732.11
2018-12-13T23:48:55.410Z,98727.07
2018-12-13T23:51:23.693Z,98732.11
2018-12-13T23:53:51.882Z,98742.52
2018-12-13T23:56:20.218Z,98738.72
2018-12-13T23:58:48.639Z,98737.02
